Time;durP1;ratioP1;P1;durP2;ratioP2;P2;SDS_P1;SDS_P2;PMS_P1;PMS_P2;Temp;Humidity;BMP_temperature;BMP_pressure;BME280_temperature;BME280_humidity;BME280_pressure;Samples;Min_cycle;Max_cycle;Signal;HPM_P1;HPM_P2
2022/01/21 00:00:32;;;;;;;;;29.50;26.75;;;;;2.61;82.43;99794.19;5068110;28;9001;-78
2022/01/21 00:03:19;;;;;;;;;23.75;21.25;;;;;2.82;79.25;99785.47;5039641;28;8870;-74
2022/01/21 00:05:48;;;;;;;;;16.50;16.50;;;;;2.90;77.41;99789.16;5034370;28;8967;-75
2022/01/21 00:08:16;;;;;;;;;14.75;13.75;;;;;2.42;73.09;99799.47;5051087;28;8895;-77
2022/01/21 00:10:48;;;;;;;;;14.75;14.75;;;;;1.97;76.08;99800.41;5067478;28;8962;-76
2022/01/21 00:13:22;;;;;;;;;18.00;14.00;;;;;1.94;77.71;99808.88;5078310;28;8850;-75
2022/01/21 00:15:50;;;;;;;;;19.50;17.25;;;;;2.17;78.58;99806.28;5085909;28;8956;-76
2022/01/21 00:18:20;;;;;;;;;18.00;12.50;;;;;2.47;77.46;99823.69;5069183;28;8869;-78
2022/01/21 00:31:55;;;;;;;;;30.50;28.75;;;;;2.50;80.38;99793.78;5069149;28;8896;-75
2022/01/21 00:34:27;;;;;;;;;29.00;25.75;;;;;2.70;78.18;99786.78;5068488;28;8846;-77
2022/01/21 00:36:55;;;;;;;;;20.25;18.00;;;;;2.80;75.51;99798.28;5069973;28;8943;-75
2022/01/21 00:39:29;;;;;;;;;24.00;20.00;;;;;2.94;75.62;99785.88;5068090;28;10097;-75
2022/01/21 00:42:07;;;;;;;;;28.75;26.25;;;;;3.18;75.66;99788.38;5068736;28;8839;-75
2022/01/21 00:44:36;;;;;;;;;28.50;26.75;;;;;3.40;76.40;99800.25;5068290;28;8885;-73
2022/01/21 00:47:07;;;;;;;;;18.50;17.00;;;;;3.50;73.30;99804.03;5068390;28;8919;-76
2022/01/21 00:49:39;;;;;;;;;30.75;30.75;;;;;2.99;72.49;99829.81;5068115;28;9080;-74
2022/01/21 00:52:08;;;;;;;;;29.50;26.25;;;;;2.98;74.97;99844.38;5084270;28;8874;-78
2022/01/21 00:54:40;;;;;;;;;27.50;25.25;;;;;2.23;74.88;99829.69;5068264;28;8839;-74
2022/01/21 00:57:10;;;;;;;;;27.00;23.50;;;;;2.16;76.10;99829.41;5069429;28;8854;-77
2022/01/21 00:59:44;;;;;;;;;24.50;22.75;;;;;2.36;75.56;99813.00;5068795;28;8842;-78
2022/01/21 01:02:13;;;;;;;;;22.00;22.00;;;;;2.40;76.95;99812.31;5068253;28;8858;-74
2022/01/21 01:04:42;;;;;;;;;19.75;19.50;;;;;2.67;76.31;99790.94;5058636;28;8841;-75
2022/01/21 01:07:11;;;;;;;;;23.00;18.75;;;;;2.74;74.11;99790.31;5088761;28;8833;-74
2022/01/21 01:09:42;;;;;;;;;24.50;23.75;;;;;2.36;74.00;99794.97;5049535;28;8849;-74
2022/01/21 01:12:20;;;;;;;;;21.75;19.25;;;;;2.02;74.91;99804.03;5029909;28;8909;-74
2022/01/21 01:20:21;;;;;;;;;31.00;21.50;;;;;1.13;79.08;99829.63;5006787;28;9047;-74
2022/01/21 01:22:55;;;;;;;;;17.75;14.25;;;;;1.19;80.65;99826.44;5006922;28;8842;-73
2022/01/21 01:28:11;;;;;;;;;21.50;20.50;;;;;0.92;81.99;99849.28;4974320;28;8834;-74
2022/01/21 01:30:40;;;;;;;;;24.25;23.25;;;;;0.87;82.40;99833.69;4974058;28;8866;-74
2022/01/21 01:33:11;;;;;;;;;25.25;21.75;;;;;0.91;82.95;99829.56;5006539;28;8847;-74
2022/01/21 01:35:40;;;;;;;;;33.25;27.00;;;;;1.06;81.80;99843.06;5006553;28;8836;-74
2022/01/21 01:38:29;;;;;;;;;25.75;20.50;;;;;1.11;81.33;99840.66;4993757;28;8910;-74
2022/01/21 01:41:03;;;;;;;;;22.00;21.25;;;;;1.08;81.28;99844.00;5002740;28;8845;-74
2022/01/21 01:49:30;;;;;;;;;18.75;16.50;;;;;1.41;79.95;99838.50;5032969;28;8875;-76
2022/01/21 01:52:01;;;;;;;;;26.00;24.00;;;;;1.80;80.54;99830.63;5065952;28;8836;-75
2022/01/21 01:54:32;;;;;;;;;24.75;22.75;;;;;2.08;80.40;99840.28;5018453;28;8844;-75
2022/01/21 01:57:01;;;;;;;;;22.50;19.75;;;;;2.24;78.44;99830.56;5084465;28;8846;-74
2022/01/21 01:59:32;;;;;;;;;19.25;16.00;;;;;2.37;77.01;99837.91;5049095;28;8832;-75
2022/01/21 02:02:05;;;;;;;;;20.75;18.75;;;;;2.45;75.89;99845.94;5032522;28;8851;-73
2022/01/21 02:04:33;;;;;;;;;19.75;17.75;;;;;2.62;76.75;99857.72;5033319;28;8848;-75
2022/01/21 02:07:04;;;;;;;;;21.50;20.25;;;;;2.74;76.17;99852.13;5069362;28;9642;-76
2022/01/21 02:09:33;;;;;;;;;21.75;19.00;;;;;2.90;75.69;99844.13;5052921;28;8874;-74
2022/01/21 02:12:05;;;;;;;;;21.50;20.50;;;;;3.10;76.62;99849.97;5069316;28;8845;-74
2022/01/21 02:14:38;;;;;;;;;17.00;17.00;;;;;3.13;73.93;99852.63;5052914;28;8849;-74
2022/01/21 02:17:18;;;;;;;;;22.75;19.00;;;;;3.20;73.41;99858.03;5068998;28;9045;-75
2022/01/21 02:22:39;;;;;;;;;18.75;16.75;;;;;3.28;73.72;99860.00;5052496;28;8892;-74
2022/01/21 02:25:16;;;;;;;;;20.40;16.60;;;;;3.36;73.42;99860.25;5052878;28;8857;-74
2022/01/21 02:27:46;;;;;;;;;19.75;19.75;;;;;3.23;72.43;99859.00;5040408;28;8853;-75
2022/01/21 02:30:19;;;;;;;;;15.75;13.75;;;;;3.35;73.00;99862.81;5070788;28;9031;-75
2022/01/21 02:32:52;;;;;;;;;15.75;10.50;;;;;3.32;71.96;99861.00;5056899;28;8919;-75
2022/01/21 02:35:21;;;;;;;;;17.25;16.00;;;;;2.93;71.72;99866.56;5055979;28;8849;-76
2022/01/21 02:37:53;;;;;;;;;19.25;17.50;;;;;2.97;73.10;99858.09;5025900;28;8929;-73
2022/01/21 02:40:27;;;;;;;;;20.75;18.25;;;;;2.90;72.75;99862.16;5074768;28;8859;-74
2022/01/21 02:42:59;;;;;;;;;20.75;15.75;;;;;3.04;73.42;99859.16;5029058;28;8962;-76
2022/01/21 02:45:29;;;;;;;;;18.25;14.50;;;;;2.87;73.00;99864.63;5091915;28;8873;-74
2022/01/21 02:47:58;;;;;;;;;15.75;14.25;;;;;3.00;73.77;99872.78;5092405;28;8929;-72
2022/01/21 02:50:29;;;;;;;;;13.25;9.00;;;;;2.94;72.17;99857.97;5072440;28;8895;-75
2022/01/21 02:53:10;;;;;;;;;17.20;15.60;;;;;2.95;72.22;99858.84;5109083;28;8888;-77
2022/01/21 02:55:42;;;;;;;;;16.75;14.50;;;;;3.04;72.46;99870.34;5090422;28;8864;-76
2022/01/21 02:58:10;;;;;;;;;13.75;13.75;;;;;2.84;71.10;99871.38;5108135;28;8931;-76
2022/01/21 03:00:40;;;;;;;;;14.50;13.25;;;;;2.66;72.20;99872.44;5090714;28;8864;-75
2022/01/21 03:03:08;;;;;;;;;20.00;19.00;;;;;2.90;73.81;99877.59;5037892;28;8855;-73
2022/01/21 03:05:39;;;;;;;;;23.75;19.75;;;;;3.07;74.40;99878.19;5037980;28;9022;-74
2022/01/21 03:08:09;;;;;;;;;16.00;15.75;;;;;3.24;74.01;99883.94;5083539;28;8838;-75
2022/01/21 03:10:37;;;;;;;;;15.50;10.00;;;;;3.36;74.31;99874.88;5034018;28;8881;-74
2022/01/21 03:13:06;;;;;;;;;14.20;14.20;;;;;3.47;73.94;99873.53;5049660;28;8901;-72
2022/01/21 03:15:35;;;;;;;;;17.00;14.25;;;;;3.46;72.13;99861.44;5073053;28;8866;-77
2022/01/21 03:18:04;;;;;;;;;16.00;15.00;;;;;3.48;72.70;99865.84;5072552;28;8873;-75
2022/01/21 03:20:33;;;;;;;;;19.50;17.75;;;;;3.37;71.40;99864.63;5057469;28;8962;-74
2022/01/21 03:23:01;;;;;;;;;18.00;16.50;;;;;3.49;72.73;99862.41;5072638;28;8830;-74
2022/01/21 03:25:32;;;;;;;;;16.25;14.00;;;;;3.58;72.74;99858.41;5087962;28;9646;-74
2022/01/21 03:28:02;;;;;;;;;11.00;10.75;;;;;3.34;70.01;99864.50;5054648;28;9625;-76
2022/01/21 03:30:36;;;;;;;;;16.50;14.75;;;;;3.40;71.68;99846.66;5089668;28;8859;-76
2022/01/21 03:33:18;;;;;;;;;16.60;11.20;;;;;3.45;71.26;99855.41;5049591;28;8838;-74
2022/01/21 03:35:46;;;;;;;;;14.80;12.40;;;;;3.47;71.09;99863.22;5031983;28;8865;-74
2022/01/21 03:38:15;;;;;;;;;12.80;12.80;;;;;3.49;70.89;99856.41;5015369;28;8884;-76
2022/01/21 03:40:45;;;;;;;;;16.75;10.75;;;;;3.55;71.22;99863.47;5031915;28;8846;-74
2022/01/21 03:43:15;;;;;;;;;12.60;12.00;;;;;3.56;71.54;99866.09;5032154;28;8869;-74
2022/01/21 03:45:58;;;;;;;;;18.40;18.40;;;;;3.61;71.17;99861.97;5032098;28;8869;-76
2022/01/21 03:48:28;;;;;;;;;14.40;14.00;;;;;3.36;70.00;99867.13;5031842;28;8884;-73
2022/01/21 03:50:57;;;;;;;;;13.40;13.20;;;;;3.25;70.96;99867.66;4999175;28;8892;-76
2022/01/21 03:53:26;;;;;;;;;10.20;10.00;;;;;3.01;70.17;99866.81;5015431;28;8862;-76
2022/01/21 03:55:56;;;;;;;;;18.20;13.00;;;;;2.86;71.26;99874.88;5014953;28;8870;-73
2022/01/21 03:58:25;;;;;;;;;12.20;12.20;;;;;2.91;72.39;99875.88;5015444;28;8853;-74
2022/01/21 04:01:01;;;;;;;;;10.20;9.40;;;;;2.88;71.70;99875.81;5014981;28;8969;-74
2022/01/21 04:03:32;;;;;;;;;13.20;11.00;;;;;3.00;71.84;99857.31;5021565;28;8947;-73
2022/01/21 04:06:03;;;;;;;;;17.25;16.00;;;;;2.86;72.18;99860.28;5054442;28;9008;-74
2022/01/21 04:08:31;;;;;;;;;13.60;10.00;;;;;3.00;72.73;99862.47;5054911;28;8896;-74
2022/01/21 04:11:04;;;;;;;;;13.60;9.80;;;;;3.06;72.13;99857.53;5054939;28;8939;-74
2022/01/21 04:13:38;;;;;;;;;16.00;10.20;;;;;3.13;71.57;99860.38;5071636;28;8831;-75
2022/01/21 04:16:09;;;;;;;;;13.40;11.20;;;;;3.20;71.97;99856.31;5071164;28;8831;-74
2022/01/21 04:18:39;;;;;;;;;19.40;14.40;;;;;3.23;71.62;99851.28;5071263;28;9494;-72
2022/01/21 04:21:11;;;;;;;;;14.00;10.80;;;;;3.19;71.32;99851.97;5088555;28;8839;-74
2022/01/21 04:23:40;;;;;;;;;8.80;8.40;;;;;3.25;71.88;99859.94;5071508;28;8824;-73
2022/01/21 04:26:13;;;;;;;;;17.40;17.40;;;;;3.30;72.12;99863.50;5061327;28;8844;-76
2022/01/21 04:28:43;;;;;;;;;15.80;15.80;;;;;3.29;71.37;99845.44;5072401;28;8874;-74
2022/01/21 04:31:12;;;;;;;;;28.25;25.00;;;;;3.33;71.34;99842.16;5072344;28;8863;-73
2022/01/21 04:33:45;;;;;;;;;17.25;17.25;;;;;3.38;71.38;99831.97;5089289;28;8847;-76
2022/01/21 04:36:16;;;;;;;;;17.20;13.20;;;;;3.40;71.31;99840.63;5072422;28;8891;-74
2022/01/21 04:38:44;;;;;;;;;23.00;19.50;;;;;3.47;71.46;99847.75;5106239;28;8875;-76
2022/01/21 04:41:36;;;;;;;;;8.20;6.80;;;;;3.47;70.79;99848.59;5072417;28;8874;-75
2022/01/21 04:49:37;;;;;;;;;13.40;13.40;;;;;2.99;70.82;99879.63;5089000;28;8986;-76
2022/01/21 04:52:09;;;;;;;;;14.40;12.00;;;;;2.82;70.28;99881.63;5032943;28;8851;-74
2022/01/21 04:54:51;;;;;;;;;20.40;15.80;;;;;2.96;71.45;99871.78;5050215;28;8882;-76
2022/01/21 04:57:23;;;;;;;;;19.00;16.40;;;;;3.06;71.26;99871.31;5050156;28;8848;-75
2022/01/21 04:59:51;;;;;;;;;18.60;15.00;;;;;3.03;70.92;99880.63;5016933;28;8867;-75
2022/01/21 05:02:25;;;;;;;;;15.80;13.40;;;;;3.05;70.61;99869.53;5067069;28;8852;-75
2022/01/21 05:04:54;;;;;;;;;16.80;14.80;;;;;3.19;70.96;99870.00;5066834;28;9009;-76
2022/01/21 05:07:25;;;;;;;;;14.40;10.40;;;;;3.23;70.62;99863.25;5050058;28;8851;-76
2022/01/21 05:09:55;;;;;;;;;19.00;17.50;;;;;3.31;70.60;99867.84;5048901;28;8844;-76
2022/01/21 05:12:27;;;;;;;;;20.00;18.75;;;;;3.16;69.80;99876.75;5049834;28;8876;-76
2022/01/21 05:15:11;;;;;;;;;17.25;16.75;;;;;3.04;68.98;99872.91;5049677;28;9628;-75
2022/01/21 05:17:45;;;;;;;;;14.60;13.60;;;;;3.18;70.00;99868.28;5033250;28;8883;-77
2022/01/21 05:20:17;;;;;;;;;20.75;17.00;;;;;3.29;70.09;99861.78;5020824;28;8870;-74
2022/01/21 05:22:53;;;;;;;;;16.75;15.00;;;;;3.27;69.20;99859.97;4989873;28;8851;-74
2022/01/21 05:25:22;;;;;;;;;26.25;22.25;;;;;3.37;70.29;99862.03;5017353;28;8846;-77
2022/01/21 05:27:58;;;;;;;;;20.60;18.20;;;;;3.43;70.33;99859.66;5051145;28;8949;-76
2022/01/21 05:30:28;;;;;;;;;19.25;17.25;;;;;3.47;69.22;99858.06;5091841;28;8847;-75
2022/01/21 05:33:17;;;;;;;;;13.50;11.50;;;;;3.50;69.80;99859.03;5089461;28;8872;-78
2022/01/21 05:35:52;;;;;;;;;22.20;21.00;;;;;3.29;68.24;99866.06;5089304;28;8974;-74
2022/01/21 05:38:53;;;;;;;;;27.50;24.50;;;;;3.29;69.11;99874.66;5087513;28;8907;-76
2022/01/21 05:41:53;;;;;;;;;44.75;37.75;;;;;3.42;70.17;99878.53;5045709;28;8866;-75
2022/01/21 05:47:41;;;;;;;;;23.75;19.00;;;;;3.20;67.49;99894.09;4991618;28;8852;-76
2022/01/21 05:50:48;;;;;;;;;24.75;21.50;;;;;3.29;68.95;99905.59;4964988;28;8882;-74
2022/01/21 05:53:32;;;;;;;;;22.00;19.75;;;;;3.35;69.11;99910.09;4946011;28;8876;-76
2022/01/21 05:56:24;;;;;;;;;20.50;20.50;;;;;3.30;68.47;99911.63;4930138;28;9050;-74
2022/01/21 05:59:03;;;;;;;;;12.75;12.00;;;;;3.25;68.27;99926.03;4912595;28;8873;-74
2022/01/21 06:01:34;;;;;;;;;15.75;15.00;;;;;3.08;68.49;99920.28;4946068;28;8857;-75
2022/01/21 06:04:10;;;;;;;;;16.75;16.75;;;;;2.81;67.49;99938.22;4929916;28;8865;-75
2022/01/21 06:06:39;;;;;;;;;19.40;16.40;;;;;2.87;68.45;99934.19;4929971;28;8986;-77
2022/01/21 06:09:08;;;;;;;;;13.20;13.00;;;;;2.90;68.74;99942.00;4895614;28;8921;-75
2022/01/21 06:11:38;;;;;;;;;10.20;9.20;;;;;2.95;68.76;99942.19;4946028;28;9026;-77
2022/01/21 06:14:07;;;;;;;;;17.40;17.00;;;;;2.88;68.08;99941.06;4945417;28;9566;-74
2022/01/21 06:16:40;;;;;;;;;13.40;13.20;;;;;2.67;67.83;99942.84;4930319;28;8871;-74
2022/01/21 06:19:09;;;;;;;;;16.60;16.60;;;;;2.82;69.00;99955.44;4939193;28;8880;-74
2022/01/21 06:21:38;;;;;;;;;15.60;15.60;;;;;2.73;68.01;99950.81;4976309;28;8887;-75
2022/01/21 06:24:07;;;;;;;;;16.00;13.00;;;;;2.43;68.56;99951.38;4997906;28;8891;-75
2022/01/21 06:26:38;;;;;;;;;13.20;12.60;;;;;2.47;68.26;99954.94;5045378;28;8869;-75
2022/01/21 06:29:07;;;;;;;;;12.00;12.00;;;;;2.53;67.83;99975.78;5044875;28;8885;-75
2022/01/21 06:31:37;;;;;;;;;9.60;9.60;;;;;2.49;67.11;99974.78;5014096;28;8886;-78
2022/01/21 06:34:07;;;;;;;;;10.80;7.00;;;;;2.59;66.96;99981.19;5046929;28;8844;-74
2022/01/21 06:36:40;;;;;;;;;10.75;8.50;;;;;2.59;66.00;99973.47;5023085;28;8850;-75
2022/01/21 06:39:09;;;;;;;;;15.00;13.60;;;;;2.58;66.22;99987.13;5021131;28;8904;-76
2022/01/21 06:41:37;;;;;;;;;4.60;4.60;;;;;2.64;65.51;99989.94;4990816;28;8880;-76
2022/01/21 06:44:06;;;;;;;;;14.00;13.60;;;;;2.27;66.08;99997.91;5006937;28;8866;-77
2022/01/21 06:46:37;;;;;;;;;13.20;11.80;;;;;1.85;67.92;100006.53;5023611;28;8846;-78
2022/01/21 06:49:05;;;;;;;;;16.80;15.60;;;;;1.84;69.56;100004.78;4976077;28;8878;-75
2022/01/21 06:51:37;;;;;;;;;13.00;13.00;;;;;2.21;70.22;100000.25;5010932;28;8924;-76
2022/01/21 06:54:06;;;;;;;;;14.60;14.40;;;;;2.22;69.55;100009.72;5027298;28;8864;-76
2022/01/21 06:56:34;;;;;;;;;16.80;16.60;;;;;2.34;68.60;100010.22;4988141;28;9634;-75
2022/01/21 06:59:05;;;;;;;;;14.40;14.40;;;;;2.51;68.59;100008.31;4955282;28;8884;-74
2022/01/21 07:01:34;;;;;;;;;16.25;13.50;;;;;2.10;68.33;100012.69;4988028;28;8944;-75
2022/01/21 07:04:11;;;;;;;;;15.00;14.40;;;;;2.06;69.03;100010.78;4953942;28;8876;-75
2022/01/21 07:06:39;;;;;;;;;19.20;16.60;;;;;2.32;70.11;100002.41;4984182;28;8852;-75
2022/01/21 07:09:08;;;;;;;;;13.80;13.20;;;;;2.46;68.23;100017.56;5015468;28;8882;-77
2022/01/21 07:11:39;;;;;;;;;19.80;16.60;;;;;2.49;68.81;100023.69;4998862;28;8866;-74
2022/01/21 07:14:08;;;;;;;;;18.00;17.00;;;;;2.34;67.80;100015.34;5015768;28;8913;-74
2022/01/21 07:16:37;;;;;;;;;17.60;15.60;;;;;2.23;68.86;100020.09;4999830;28;9724;-80
2022/01/21 07:19:07;;;;;;;;;20.00;16.60;;;;;2.41;68.53;100025.09;4976755;28;8851;-76
2022/01/21 07:21:35;;;;;;;;;16.50;14.00;;;;;2.29;68.15;100028.06;5008420;28;8855;-75
2022/01/21 07:24:05;;;;;;;;;20.00;18.00;;;;;2.09;69.01;100028.94;4992953;28;9031;-76
2022/01/21 07:26:36;;;;;;;;;16.60;16.00;;;;;1.98;68.67;100031.06;4975090;28;8862;-74
2022/01/21 07:29:05;;;;;;;;;13.80;12.60;;;;;1.98;68.52;100028.47;5008973;28;8878;-76
2022/01/21 07:31:34;;;;;;;;;16.00;12.40;;;;;1.84;70.30;100016.75;4993044;28;8912;-76
2022/01/21 07:34:06;;;;;;;;;16.50;16.50;;;;;1.84;69.67;100014.19;4941468;28;8861;-78
2022/01/21 07:36:36;;;;;;;;;20.25;19.00;;;;;2.01;70.36;100002.03;4989500;28;8892;-78
2022/01/21 07:39:06;;;;;;;;;16.25;15.00;;;;;1.84;69.22;100004.78;4988857;28;8842;-76
2022/01/21 07:41:35;;;;;;;;;17.75;16.75;;;;;2.18;70.08;99995.88;4988945;28;8831;-74
2022/01/21 07:44:04;;;;;;;;;17.75;15.75;;;;;2.38;68.37;99996.63;4988703;28;8827;-75
2022/01/21 07:46:33;;;;;;;;;19.80;17.40;;;;;2.54;68.41;99996.44;4975532;28;9655;-76
2022/01/21 07:49:02;;;;;;;;;15.00;12.50;;;;;2.74;68.63;100004.03;4976101;28;8855;-76
2022/01/21 07:51:32;;;;;;;;;25.75;21.75;;;;;2.56;67.65;99993.06;5046453;28;8938;-75
2022/01/21 07:54:02;;;;;;;;;18.75;17.50;;;;;2.68;67.52;99991.81;5002275;28;8898;-74
2022/01/21 07:56:34;;;;;;;;;20.00;18.25;;;;;2.83;68.06;99994.09;5058532;28;8838;-74
2022/01/21 07:59:05;;;;;;;;;20.50;20.00;;;;;2.81;67.10;100002.59;5065685;28;8868;-74
2022/01/21 08:01:34;;;;;;;;;13.75;11.00;;;;;2.45;66.79;100003.78;5049529;28;8932;-75
2022/01/21 08:04:05;;;;;;;;;24.00;16.75;;;;;2.70;67.79;99992.78;5038712;28;8945;-76
2022/01/21 08:06:35;;;;;;;;;21.75;20.25;;;;;2.71;67.63;99989.34;5050569;28;8940;-76
2022/01/21 08:09:07;;;;;;;;;17.20;16.20;;;;;2.78;68.16;100002.47;5049905;28;8844;-74
2022/01/21 08:11:37;;;;;;;;;16.50;15.50;;;;;2.77;67.46;100011.88;5076858;28;8972;-76
2022/01/21 08:14:05;;;;;;;;;23.25;20.75;;;;;3.05;67.25;100018.09;5049610;28;8914;-76
2022/01/21 08:16:36;;;;;;;;;20.75;16.75;;;;;3.31;68.07;100014.78;5050770;28;8864;-75
2022/01/21 08:19:07;;;;;;;;;24.50;22.50;;;;;3.11;66.38;100019.19;5050227;28;8840;-75
2022/01/21 08:21:40;;;;;;;;;15.60;15.60;;;;;3.17;65.62;100034.00;5067468;28;9032;-75
2022/01/21 08:24:09;;;;;;;;;23.00;19.00;;;;;2.44;67.81;100053.53;5050168;28;9021;-74
2022/01/21 08:26:39;;;;;;;;;18.25;18.25;;;;;2.04;69.69;100066.44;5055083;28;9001;-72
2022/01/21 08:29:10;;;;;;;;;18.00;17.00;;;;;1.59;72.12;100051.69;5033083;28;8890;-71
2022/01/21 08:31:39;;;;;;;;;17.50;16.50;;;;;1.50;71.11;100043.59;5027016;28;8868;-66
2022/01/21 08:34:11;;;;;;;;;17.00;17.00;;;;;1.72;72.49;100055.66;5026150;28;8896;-67
2022/01/21 08:36:46;;;;;;;;;20.50;20.25;;;;;1.96;71.32;100048.13;5026181;28;8986;-66
2022/01/21 08:39:18;;;;;;;;;16.00;15.50;;;;;2.08;71.32;100040.03;5026736;28;8868;-71
2022/01/21 08:41:49;;;;;;;;;15.50;13.75;;;;;1.93;71.12;100037.72;5026312;28;9003;-70
2022/01/21 08:44:18;;;;;;;;;22.75;19.75;;;;;2.25;71.26;100025.28;5029627;28;8885;-71
2022/01/21 08:46:48;;;;;;;;;17.20;16.20;;;;;2.33;70.32;100026.50;5065763;28;9082;-73
2022/01/21 08:49:37;;;;;;;;;16.00;16.00;;;;;2.41;69.75;100042.22;5039528;28;8913;-75
2022/01/21 08:52:06;;;;;;;;;16.50;16.50;;;;;1.63;72.86;100065.56;5007218;28;8870;-72
2022/01/21 08:54:36;;;;;;;;;20.00;17.00;;;;;1.42;73.70;100083.47;4964391;28;8871;-72
2022/01/21 08:57:05;;;;;;;;;21.60;19.00;;;;;1.36;73.85;100086.63;5049009;28;8956;-73
2022/01/21 08:59:39;;;;;;;;;18.75;17.75;;;;;1.36;73.71;100096.91;5065603;28;8893;-71
2022/01/21 09:02:09;;;;;;;;;21.25;15.75;;;;;0.87;75.79;100100.69;5005922;28;8865;-73
2022/01/21 09:04:38;;;;;;;;;19.25;17.00;;;;;0.72;76.07;100110.22;5005269;28;9026;-73
2022/01/21 09:07:09;;;;;;;;;18.00;15.25;;;;;0.68;75.54;100103.16;5005697;28;9571;-71
2022/01/21 09:09:39;;;;;;;;;19.75;18.25;;;;;0.72;76.42;100112.81;4998091;28;8867;-75
2022/01/21 09:12:08;;;;;;;;;20.50;16.50;;;;;0.66;76.88;100117.63;5028591;28;8876;-75
2022/01/21 09:14:37;;;;;;;;;25.50;24.00;;;;;0.64;76.99;100132.94;5028649;28;8896;-74
2022/01/21 09:17:06;;;;;;;;;17.50;15.75;;;;;0.49;76.21;100137.31;5028943;28;8859;-73
2022/01/21 09:19:34;;;;;;;;;15.25;14.50;;;;;0.52;76.86;100133.22;5011792;28;8910;-73
2022/01/21 09:22:03;;;;;;;;;25.75;20.75;;;;;0.48;77.22;100128.75;5028138;28;8848;-73
2022/01/21 09:24:33;;;;;;;;;19.25;18.75;;;;;0.53;76.31;100136.66;5027306;28;8907;-73
2022/01/21 09:27:04;;;;;;;;;20.25;15.25;;;;;0.53;75.14;100131.53;5045193;28;8987;-74
2022/01/21 09:29:36;;;;;;;;;16.75;10.50;;;;;0.49;75.39;100139.88;5027302;28;8888;-71
2022/01/21 09:32:06;;;;;;;;;20.00;17.00;;;;;0.39;75.16;100154.81;5012171;28;8860;-72
2022/01/21 09:34:35;;;;;;;;;16.00;16.00;;;;;0.53;75.38;100134.09;5034963;28;8844;-73
2022/01/21 09:37:04;;;;;;;;;10.25;9.75;;;;;0.43;71.85;100137.91;5087063;28;8846;-72
2022/01/21 09:39:33;;;;;;;;;9.25;9.25;;;;;0.32;72.12;100139.94;5069602;28;8849;-74
2022/01/21 09:42:06;;;;;;;;;7.00;6.50;;;;;0.31;71.69;100145.88;5069224;28;8948;-71
2022/01/21 09:44:39;;;;;;;;;10.00;9.50;;;;;0.31;71.26;100137.31;5085502;28;8929;-74
2022/01/21 09:47:14;;;;;;;;;9.25;8.75;;;;;0.34;69.07;100148.59;5086173;28;8871;-71
2022/01/21 09:49:45;;;;;;;;;11.50;9.00;;;;;0.41;68.58;100152.34;5051845;28;8877;-72
2022/01/21 09:52:18;;;;;;;;;9.25;7.00;;;;;0.40;68.41;100137.75;5045188;28;8835;-71
2022/01/21 09:54:48;;;;;;;;;9.00;9.00;;;;;0.31;67.48;100130.47;5060813;28;9071;-74
2022/01/21 09:57:21;;;;;;;;;3.80;3.80;;;;;0.34;67.48;100122.94;5064971;28;8853;-74
2022/01/21 09:59:52;;;;;;;;;6.80;6.40;;;;;0.43;68.08;100122.50;5064231;28;8822;-72
2022/01/21 10:02:28;;;;;;;;;4.60;4.60;;;;;0.51;66.73;100098.13;5030747;28;8853;-71
2022/01/21 10:04:59;;;;;;;;;6.40;4.00;;;;;0.57;65.78;100136.91;5046849;28;8868;-73
2022/01/21 10:07:30;;;;;;;;;9.00;3.75;;;;;0.38;66.82;100113.72;5003566;28;8910;-72
2022/01/21 10:10:00;;;;;;;;;6.00;6.00;;;;;0.22;66.09;100124.88;4999442;28;8873;-72
2022/01/21 10:12:30;;;;;;;;;6.40;6.40;;;;;0.15;66.39;100128.84;5024581;28;8849;-71
2022/01/21 10:14:59;;;;;;;;;7.00;7.00;;;;;0.21;67.43;100120.59;5024804;28;8976;-70
2022/01/21 10:18:01;;;;;;;;;7.40;6.40;;;;;0.21;65.82;100123.16;4996903;28;8868;-72
2022/01/21 10:20:57;;;;;;;;;6.50;6.50;;;;;0.38;65.70;100098.34;4978216;28;8901;-74
2022/01/21 10:23:33;;;;;;;;;3.00;3.00;;;;;0.22;61.99;100130.00;5025036;28;8876;-74
2022/01/21 10:26:05;;;;;;;;;5.60;5.60;;;;;0.12;63.39;100131.25;5044940;28;9609;-72
2022/01/21 10:28:36;;;;;;;;;7.20;5.60;;;;;0.29;63.33;100139.78;4987175;28;12123;-74
2022/01/21 10:31:11;;;;;;;;;9.20;6.60;;;;;0.36;63.76;100130.72;5044266;28;8880;-73
2022/01/21 10:33:46;;;;;;;;;4.00;4.00;;;;;0.41;64.47;100133.50;5041361;28;8938;-71
2022/01/21 10:36:23;;;;;;;;;6.20;4.40;;;;;0.41;64.65;100119.00;5041068;28;8857;-75
2022/01/21 10:38:56;;;;;;;;;6.60;6.20;;;;;0.32;66.10;100118.53;5038958;28;8850;-71
2022/01/21 10:41:31;;;;;;;;;9.80;6.60;;;;;0.37;66.45;100115.38;5005261;28;8857;-74
2022/01/21 10:44:09;;;;;;;;;6.80;6.20;;;;;0.39;63.36;100111.22;5007559;28;8850;-72
2022/01/21 10:46:39;;;;;;;;;5.60;3.60;;;;;0.31;64.07;100116.78;5042006;28;8955;-71
2022/01/21 10:49:10;;;;;;;;;5.20;3.80;;;;;0.30;62.95;100121.03;5026977;28;9070;-72
2022/01/21 10:51:40;;;;;;;;;6.00;6.00;;;;;0.38;63.38;100124.84;5043881;28;8969;-74
2022/01/21 10:54:18;;;;;;;;;5.80;5.80;;;;;0.31;63.88;100125.34;5040575;28;9608;-73
2022/01/21 10:57:11;;;;;;;;;4.00;4.00;;;;;0.13;63.45;100133.03;5044181;28;8881;-70
2022/01/21 10:59:58;;;;;;;;;3.60;3.20;;;;;0.13;63.23;100120.19;5042691;28;8965;-72
2022/01/21 11:02:30;;;;;;;;;4.40;4.00;;;;;0.24;63.06;100130.09;5026649;28;8912;-72
2022/01/21 11:05:01;;;;;;;;;11.40;9.40;;;;;0.29;63.12;100121.84;5043500;28;8893;-72
2022/01/21 11:07:48;;;;;;;;;8.00;7.00;;;;;0.31;62.02;100117.66;5044296;28;9920;-73
2022/01/21 11:10:38;;;;;;;;;6.00;4.40;;;;;0.38;60.23;100112.03;5027685;28;8887;-72
2022/01/21 11:13:42;;;;;;;;;3.60;3.60;;;;;0.38;61.01;100099.19;5043136;28;8834;-72
2022/01/21 11:16:19;;;;;;;;;9.75;8.00;;;;;0.56;61.25;100103.47;5027075;28;8877;-70
2022/01/21 11:19:11;;;;;;;;;7.00;7.00;;;;;0.56;61.69;100104.34;5026437;28;8855;-73
2022/01/21 11:22:05;;;;;;;;;6.00;6.00;;;;;0.70;61.68;100089.63;5016533;28;10102;-72
2022/01/21 11:24:34;;;;;;;;;11.25;7.50;;;;;0.97;61.84;100084.03;5040676;28;8924;-75
2022/01/21 11:27:12;;;;;;;;;6.40;4.00;;;;;0.73;60.85;100097.44;5011091;28;8882;-71
2022/01/21 11:29:42;;;;;;;;;7.00;6.20;;;;;0.69;62.13;100089.53;5047176;28;8847;-72
2022/01/21 11:32:13;;;;;;;;;4.80;3.00;;;;;0.48;61.19;100099.66;5026346;28;8863;-74
2022/01/21 11:34:43;;;;;;;;;7.40;7.40;;;;;0.61;62.21;100094.31;5029206;28;8882;-75
2022/01/21 11:37:12;;;;;;;;;3.20;3.20;;;;;0.81;62.16;100092.66;5048926;28;8884;-75
2022/01/21 11:39:41;;;;;;;;;9.00;6.80;;;;;0.82;61.40;100103.84;5050122;28;9627;-74
2022/01/21 11:42:10;;;;;;;;;10.00;10.00;;;;;0.66;60.99;100091.94;5048882;28;9736;-72
2022/01/21 11:44:51;;;;;;;;;6.50;6.00;;;;;0.82;61.55;100097.00;5048425;28;8851;-72
2022/01/21 11:47:49;;;;;;;;;9.40;8.60;;;;;0.75;59.28;100095.81;5031763;28;8847;-71
2022/01/21 11:50:21;;;;;;;;;6.00;4.00;;;;;0.63;59.87;100092.69;5048376;28;9634;-73
2022/01/21 11:52:50;;;;;;;;;7.75;7.75;;;;;0.46;60.55;100084.19;5048551;28;8838;-71
2022/01/21 11:55:36;;;;;;;;;9.20;6.20;;;;;0.41;59.79;100098.47;5050742;28;9626;-74
2022/01/21 11:58:13;;;;;;;;;8.20;5.00;;;;;0.29;57.30;100090.19;5016768;28;8977;-72
2022/01/21 12:00:42;;;;;;;;;6.40;6.40;;;;;0.33;57.67;100095.53;5047543;28;8962;-75
2022/01/21 12:03:14;;;;;;;;;10.25;6.75;;;;;0.42;57.30;100074.59;5049847;28;8853;-74
2022/01/21 12:05:43;;;;;;;;;4.00;4.00;;;;;0.29;55.95;100105.56;5049762;28;8874;-72
2022/01/21 12:08:12;;;;;;;;;10.60;4.00;;;;;0.35;55.99;100093.03;5047018;28;9000;-75
2022/01/21 12:10:43;;;;;;;;;2.50;2.50;;;;;0.43;56.28;100117.38;5027646;28;8865;-74
2022/01/21 12:13:16;;;;;;;;;3.80;3.80;;;;;0.32;56.29;100108.25;5047615;28;8866;-73
2022/01/21 12:19:21;;;;;;;;;8.00;5.00;;;;;0.55;55.80;100091.47;5064877;28;8860;-73
2022/01/21 12:21:51;;;;;;;;;6.60;2.80;;;;;0.60;54.52;100074.56;5027978;28;8830;-75
2022/01/21 12:25:14;;;;;;;;;7.00;7.00;;;;;0.46;55.00;100088.44;5061991;28;8880;-74
2022/01/21 12:28:16;;;;;;;;;12.50;10.50;;;;;0.56;56.38;100091.50;5042190;28;8865;-74
2022/01/21 12:30:53;;;;;;;;;6.75;4.25;;;;;0.57;55.92;100074.44;4996778;28;8920;-75
2022/01/21 12:34:04;;;;;;;;;4.00;4.00;;;;;0.48;54.98;100071.44;5047302;28;8859;-74
2022/01/21 12:36:37;;;;;;;;;7.00;6.50;;;;;0.37;53.87;100089.72;5047381;28;8883;-71
2022/01/21 12:39:39;;;;;;;;;4.80;3.00;;;;;0.32;53.04;100104.03;5048054;28;8931;-74
2022/01/21 12:42:27;;;;;;;;;3.20;3.00;;;;;0.36;52.34;100070.03;5047585;28;8881;-73